Time;durP1;ratioP1;P1;durP2;ratioP2;P2;SDS_P1;SDS_P2;PMS_P1;PMS_P2;Temp;Humidity;BMP_temperature;BMP_pressure;BME280_temperature;BME280_humidity;BME280_pressure;Samples;Min_cycle;Max_cycle;Signal;HPM_P1;HPM_P2
2023/03/21 00:02:02;;;;;;;16.63;10.85;;;;;;;-143.48;100.00;118439.88;5054084;28;20475;-69
2023/03/21 00:04:27;;;;;;;15.77;10.73;;;;;;;-143.48;100.00;118439.88;5057741;28;20031;-69
2023/03/21 00:06:52;;;;;;;16.40;10.70;;;;;;;-143.48;100.00;118439.88;5056212;28;20111;-69
2023/03/21 00:09:18;;;;;;;17.67;10.70;;;;;;;-143.48;100.00;118439.88;5056200;28;20033;-69
2023/03/21 00:11:44;;;;;;;15.73;10.93;;;;;;;-143.48;100.00;118439.88;5057738;28;20108;-69
2023/03/21 00:14:13;;;;;;;15.82;11.10;;;;;;;-143.48;100.00;118439.88;5057750;28;20059;-70
2023/03/21 00:16:39;;;;;;;18.45;12.20;;;;;;;-143.48;100.00;118439.88;5056727;28;20384;-70
2023/03/21 00:19:05;;;;;;;16.48;10.90;;;;;;;-143.48;100.00;118439.88;5059995;28;20028;-69
2023/03/21 00:21:32;;;;;;;14.82;10.52;;;;;;;-143.48;100.00;118439.88;5057433;28;20033;-70
2023/03/21 00:23:59;;;;;;;15.57;10.68;;;;;;;-143.48;100.00;118439.88;5060149;28;20036;-69
2023/03/21 00:26:24;;;;;;;15.77;10.82;;;;;;;-143.48;100.00;118439.88;5055882;28;20021;-68
2023/03/21 00:28:50;;;;;;;17.73;10.98;;;;;;;-143.48;100.00;118439.88;5056025;28;20032;-69
2023/03/21 00:31:16;;;;;;;15.32;11.20;;;;;;;-143.48;100.00;118439.88;5055931;28;20029;-69
2023/03/21 00:33:42;;;;;;;16.77;11.38;;;;;;;-143.48;100.00;118439.88;5056922;28;20040;-69
2023/03/21 00:36:14;;;;;;;18.60;10.88;;;;;;;-143.48;100.00;118439.88;5057163;28;20029;-69
2023/03/21 00:38:40;;;;;;;18.52;11.30;;;;;;;-143.48;100.00;118439.88;5057003;28;20025;-69
2023/03/21 00:41:08;;;;;;;15.75;11.10;;;;;;;-143.48;100.00;118439.88;5057100;28;20017;-69
2023/03/21 00:43:33;;;;;;;15.73;11.10;;;;;;;-143.48;100.00;118439.88;5055906;28;20476;-69
2023/03/21 00:45:59;;;;;;;18.40;11.68;;;;;;;-143.48;100.00;118439.88;5055621;28;20112;-69
2023/03/21 00:48:25;;;;;;;18.13;12.05;;;;;;;-143.48;100.00;118439.88;5056795;28;20032;-69
2023/03/21 00:50:53;;;;;;;19.30;12.02;;;;;;;-143.48;100.00;118439.88;5057048;28;20108;-69
2023/03/21 00:53:19;;;;;;;19.33;12.95;;;;;;;-143.48;100.00;118439.88;5081376;28;20044;-69
2023/03/21 00:55:45;;;;;;;18.15;12.82;;;;;;;-143.48;100.00;118439.88;5097148;28;20028;-69
2023/03/21 00:58:10;;;;;;;18.17;12.40;;;;;;;-143.48;100.00;118439.88;5097175;28;20348;-68
2023/03/21 01:00:36;;;;;;;22.60;13.23;;;;;;;-143.48;100.00;118439.88;5097090;28;20028;-69
2023/03/21 01:03:04;;;;;;;22.23;13.30;;;;;;;-143.48;100.00;118439.88;5096889;28;20031;-69
2023/03/21 01:08:18;;;;;;;21.77;13.70;;;;;;;-143.48;100.00;118439.88;5097009;28;20328;-69
2023/03/21 01:10:45;;;;;;;22.10;14.00;;;;;;;-143.48;100.00;118439.88;5096836;28;20023;-68
2023/03/21 01:13:12;;;;;;;22.17;13.65;;;;;;;-143.48;100.00;118439.88;5096792;28;20032;-69
2023/03/21 01:15:47;;;;;;;18.00;12.77;;;;;;;-143.48;100.00;118439.88;5096094;28;20032;-69
2023/03/21 01:18:15;;;;;;;21.60;13.73;;;;;;;-143.48;100.00;118439.88;5095727;28;20028;-71
2023/03/21 01:20:41;;;;;;;22.38;13.52;;;;;;;-143.48;100.00;118439.88;5095505;28;20024;-69
2023/03/21 01:23:07;;;;;;;22.48;14.00;;;;;;;-143.48;100.00;118439.88;5097005;28;20028;-69
2023/03/21 01:25:33;;;;;;;21.77;13.65;;;;;;;-143.48;100.00;118439.88;5096947;28;20038;-69
2023/03/21 01:27:58;;;;;;;18.88;13.52;;;;;;;-143.48;100.00;118439.88;5095560;28;20482;-69
2023/03/21 01:30:23;;;;;;;22.23;13.60;;;;;;;-143.48;100.00;118439.88;5097082;28;20031;-69
2023/03/21 01:32:49;;;;;;;22.02;13.38;;;;;;;-143.48;100.00;118439.88;5078743;28;20024;-69
2023/03/21 01:35:14;;;;;;;19.02;13.88;;;;;;;-143.48;100.00;118439.88;5097355;28;20052;-69
2023/03/21 01:37:40;;;;;;;25.27;14.20;;;;;;;-143.48;100.00;118439.88;5078907;28;20027;-69
2023/03/21 01:40:11;;;;;;;21.23;13.52;;;;;;;-143.48;100.00;118439.88;5096008;28;20032;-69
2023/03/21 01:42:38;;;;;;;22.05;13.95;;;;;;;-143.48;100.00;118439.88;5104511;28;20466;-69
2023/03/21 01:45:25;;;;;;;18.50;12.90;;;;;;;-143.48;100.00;118439.88;5107864;28;20031;-69
2023/03/21 01:47:50;;;;;;;18.55;13.00;;;;;;;-143.48;100.00;118439.88;5089998;28;20038;-69
2023/03/21 01:50:20;;;;;;;19.75;12.65;;;;;;;-143.48;100.00;118439.88;5090184;28;20055;-69
2023/03/21 01:52:48;;;;;;;21.00;13.80;;;;;;;-143.48;100.00;118439.88;5107701;28;20043;-69
2023/03/21 01:55:17;;;;;;;20.85;13.73;;;;;;;-143.48;100.00;118439.88;5106967;28;20470;-69
2023/03/21 01:57:51;;;;;;;21.15;13.60;;;;;;;-143.48;100.00;118439.88;5108054;28;20023;-69
2023/03/21 02:00:19;;;;;;;22.35;13.85;;;;;;;-143.48;100.00;118439.88;5108746;28;20174;-69
2023/03/21 02:02:54;;;;;;;21.67;13.80;;;;;;;-143.48;100.00;118439.88;5107753;28;20028;-70
2023/03/21 02:05:55;;;;;;;24.17;14.52;;;;;;;-143.48;100.00;118439.88;5110742;28;20031;-70
2023/03/21 02:08:22;;;;;;;24.55;14.13;;;;;;;-143.48;100.00;118439.88;5113868;28;20081;-71
2023/03/21 02:10:49;;;;;;;24.88;14.23;;;;;;;-143.48;100.00;118439.88;5112954;28;20031;-72
2023/03/21 02:13:15;;;;;;;23.35;14.60;;;;;;;-143.48;100.00;118439.88;5113945;28;20008;-70
2023/03/21 02:15:47;;;;;;;29.42;15.77;;;;;;;-143.48;100.00;118439.88;5113685;28;20047;-69
2023/03/21 02:18:32;;;;;;;25.10;15.33;;;;;;;-143.48;100.00;118439.88;5114276;28;20008;-69
2023/03/21 02:21:45;;;;;;;24.55;15.40;;;;;;;-143.48;100.00;118439.88;5113410;28;20031;-70
2023/03/21 02:24:10;;;;;;;25.83;15.52;;;;;;;-143.48;100.00;118439.88;5102370;28;20026;-69
2023/03/21 02:27:05;;;;;;;32.65;16.45;;;;;;;-143.48;100.00;118439.88;5081296;28;20052;-71
2023/03/21 02:29:48;;;;;;;26.95;16.13;;;;;;;-143.48;100.00;118439.88;5099905;28;20028;-69
2023/03/21 02:32:16;;;;;;;32.30;16.83;;;;;;;-143.48;100.00;118439.88;5098865;28;20028;-69
2023/03/21 02:34:59;;;;;;;27.15;15.88;;;;;;;-143.48;100.00;118439.88;5098643;28;20059;-69
2023/03/21 02:37:32;;;;;;;36.85;17.75;;;;;;;-143.48;100.00;118439.88;5097963;28;20035;-70
2023/03/21 02:40:18;;;;;;;30.25;17.58;;;;;;;-143.48;100.00;118439.88;5097675;28;20035;-69
2023/03/21 02:43:01;;;;;;;32.40;18.13;;;;;;;-143.48;100.00;118439.88;5078463;28;20053;-69
2023/03/21 02:45:32;;;;;;;34.20;16.98;;;;;;;-143.48;100.00;118439.88;5096358;28;20061;-69
2023/03/21 02:48:08;;;;;;;31.40;17.02;;;;;;;-143.48;100.00;118439.88;5094769;28;20049;-69
2023/03/21 02:50:41;;;;;;;37.78;18.13;;;;;;;-143.48;100.00;118439.88;5094761;28;20031;-69
2023/03/21 02:53:08;;;;;;;;;;;;;;;-143.48;100.00;118439.88;5095616;28;20488;-69
2023/03/21 02:55:36;;;;;;;34.33;17.15;;;;;;;-143.48;100.00;118439.88;5095365;28;20287;-69
2023/03/21 02:58:03;;;;;;;29.25;17.48;;;;;;;-143.48;100.00;118439.88;5095128;28;20024;-69
2023/03/21 03:00:31;;;;;;;33.65;17.17;;;;;;;-143.48;100.00;118439.88;5076704;28;20429;-69
2023/03/21 03:02:57;;;;;;;33.80;16.30;;;;;;;-143.48;100.00;118439.88;5076749;28;20115;-69
2023/03/21 03:05:26;;;;;;;33.97;16.15;;;;;;;-143.48;100.00;118439.88;5095034;28;20535;-69
2023/03/21 03:08:12;;;;;;;34.92;17.00;;;;;;;-143.48;100.00;118439.88;5094785;28;20101;-69
2023/03/21 03:11:36;;;;;;;35.13;15.95;;;;;;;-143.48;100.00;118439.88;5094891;28;20032;-69
2023/03/21 03:14:23;;;;;;;32.60;14.50;;;;;;;-143.48;100.00;118439.88;4992555;28;20085;-70
2023/03/21 03:17:07;;;;;;;20.73;13.23;;;;;;;-143.48;100.00;118439.88;4993320;28;20052;-69
2023/03/21 03:19:45;;;;;;;25.58;13.43;;;;;;;-143.48;100.00;118439.88;5065949;28;20395;-69
2023/03/21 03:22:21;;;;;;;29.55;13.00;;;;;;;-143.48;100.00;118439.88;5094653;28;20019;-69
2023/03/21 03:25:06;;;;;;;25.08;13.05;;;;;;;-143.48;100.00;118439.88;5093547;28;20032;-69
2023/03/21 03:27:36;;;;;;;24.17;12.98;;;;;;;-143.48;100.00;118439.88;5094761;28;20081;-69
2023/03/21 03:30:04;;;;;;;20.67;12.02;;;;;;;-143.48;100.00;118439.88;5094789;28;20468;-69
2023/03/21 03:32:49;;;;;;;22.52;12.43;;;;;;;-143.48;100.00;118439.88;5093483;28;20016;-69
2023/03/21 03:35:18;;;;;;;19.13;11.43;;;;;;;-143.48;100.00;118439.88;5094487;28;20103;-68
2023/03/21 03:37:48;;;;;;;24.42;12.05;;;;;;;-143.48;100.00;118439.88;5075904;28;20086;-69
2023/03/21 03:40:29;;;;;;;19.63;11.82;;;;;;;-143.48;100.00;118439.88;5094484;28;20023;-69
2023/03/21 03:43:04;;;;;;;23.98;11.77;;;;;;;-143.48;100.00;118439.88;5094479;28;20379;-69
2023/03/21 03:45:37;;;;;;;23.42;11.50;;;;;;;-143.48;100.00;118439.88;5094703;28;20035;-69
2023/03/21 03:48:27;;;;;;;20.92;11.38;;;;;;;-143.48;100.00;118439.88;5072711;28;20653;-69
2023/03/21 03:51:12;;;;;;;18.77;11.45;;;;;;;-143.48;100.00;118439.88;5074233;28;20364;-69
2023/03/21 03:53:45;;;;;;;21.08;11.75;;;;;;;-143.48;100.00;118439.88;5072673;28;20450;-69
2023/03/21 03:56:12;;;;;;;20.55;11.02;;;;;;;-143.48;100.00;118439.88;5072927;28;20028;-69
2023/03/21 03:58:38;;;;;;;22.63;11.07;;;;;;;-143.48;100.00;118439.88;5073183;28;20033;-69
2023/03/21 04:01:06;;;;;;;26.27;11.02;;;;;;;-143.48;100.00;118439.88;5074017;28;20024;-69
2023/03/21 04:03:32;;;;;;;17.55;10.32;;;;;;;-143.48;100.00;118439.88;5072834;28;20163;-69
2023/03/21 04:05:58;;;;;;;15.68;9.48;;;;;;;-143.48;100.00;118439.88;5072701;28;20032;-69
2023/03/21 04:08:23;;;;;;;20.08;10.40;;;;;;;-143.48;100.00;118439.88;5073952;28;20384;-69
2023/03/21 04:10:49;;;;;;;21.80;10.90;;;;;;;-143.48;100.00;118439.88;5072042;28;20024;-69
2023/03/21 04:13:14;;;;;;;21.27;10.15;;;;;;;-143.48;100.00;118439.88;5073854;28;20048;-69
2023/03/21 04:15:39;;;;;;;24.42;11.00;;;;;;;-143.48;100.00;118439.88;5073612;28;20028;-69
2023/03/21 04:18:05;;;;;;;21.90;10.95;;;;;;;-143.48;100.00;118439.88;5073640;28;20036;-69
2023/03/21 04:20:30;;;;;;;26.63;11.23;;;;;;;-143.48;100.00;118439.88;5072387;28;20033;-69
2023/03/21 04:22:56;;;;;;;24.95;11.48;;;;;;;-143.48;100.00;118439.88;5073555;28;20453;-69
2023/03/21 04:25:21;;;;;;;25.60;10.63;;;;;;;-143.48;100.00;118439.88;5073489;28;20024;-70
2023/03/21 04:27:47;;;;;;;21.63;10.95;;;;;;;-143.48;100.00;118439.88;5073641;28;20074;-69
2023/03/21 04:30:14;;;;;;;28.50;11.70;;;;;;;-143.48;100.00;118439.88;5078365;28;20028;-70
2023/03/21 04:32:39;;;;;;;23.90;11.05;;;;;;;-143.48;100.00;118439.88;5073546;28;20021;-70
2023/03/21 04:35:07;;;;;;;20.27;11.13;;;;;;;-143.48;100.00;118439.88;5072353;28;20085;-70
2023/03/21 04:37:33;;;;;;;23.15;10.80;;;;;;;-143.48;100.00;118439.88;5073547;28;20012;-70
2023/03/21 04:39:59;;;;;;;25.10;10.50;;;;;;;-143.48;100.00;118439.88;5073435;28;20471;-69
2023/03/21 04:42:24;;;;;;;27.38;11.50;;;;;;;-143.48;100.00;118439.88;5073997;28;20012;-69
2023/03/21 04:44:50;;;;;;;31.92;12.05;;;;;;;-143.48;100.00;118439.88;5073440;28;20029;-70
2023/03/21 04:47:19;;;;;;;24.38;11.10;;;;;;;-143.48;100.00;118439.88;5073535;28;20043;-70
2023/03/21 04:49:44;;;;;;;29.58;11.25;;;;;;;-143.48;100.00;118439.88;5075874;28;20069;-70
2023/03/21 04:52:09;;;;;;;22.40;10.70;;;;;;;-143.48;100.00;118439.88;5075824;28;20431;-70
2023/03/21 04:54:35;;;;;;;27.98;13.07;;;;;;;-143.48;100.00;118439.88;5076034;28;20131;-69
2023/03/21 04:57:01;;;;;;;25.70;12.55;;;;;;;-143.48;100.00;118439.88;5077103;28;20474;-69
2023/03/21 04:59:26;;;;;;;23.55;12.23;;;;;;;-143.48;100.00;118439.88;5077088;28;20032;-69
2023/03/21 05:01:51;;;;;;;28.73;13.18;;;;;;;-143.48;100.00;118439.88;5077027;28;20021;-70
2023/03/21 05:04:17;;;;;;;32.33;12.95;;;;;;;-143.48;100.00;118439.88;5075618;28;20115;-70
2023/03/21 05:06:43;;;;;;;28.52;13.73;;;;;;;-143.48;100.00;118439.88;5076868;28;20016;-69
2023/03/21 05:09:09;;;;;;;30.65;14.50;;;;;;;-143.48;100.00;118439.88;5076852;28;20094;-69
2023/03/21 05:11:37;;;;;;;31.50;14.65;;;;;;;-143.48;100.00;118439.88;5076690;28;20090;-68
2023/03/21 05:14:04;;;;;;;30.48;14.30;;;;;;;-143.48;100.00;118439.88;5076481;28;20078;-69
2023/03/21 05:16:29;;;;;;;27.30;14.60;;;;;;;-143.48;100.00;118439.88;5076698;28;20066;-69
2023/03/21 05:19:02;;;;;;;31.98;15.10;;;;;;;-143.48;100.00;118439.88;5076447;28;20448;-69
2023/03/21 05:21:32;;;;;;;32.45;15.40;;;;;;;-143.48;100.00;118439.88;5076402;28;20032;-69
2023/03/21 05:24:02;;;;;;;28.90;14.65;;;;;;;-143.48;100.00;118439.88;5082165;28;20025;-69
2023/03/21 05:26:28;;;;;;;29.05;14.48;;;;;;;-143.48;100.00;118439.88;5077677;28;20024;-69
2023/03/21 05:28:54;;;;;;;29.15;15.02;;;;;;;-143.48;100.00;118439.88;5077388;28;20043;-70
2023/03/21 05:31:19;;;;;;;28.33;14.57;;;;;;;-143.48;100.00;118439.88;5076889;28;20032;-68
2023/03/21 05:33:45;;;;;;;32.33;14.80;;;;;;;-143.48;100.00;118439.88;5078579;28;20100;-69
2023/03/21 05:36:11;;;;;;;28.73;14.68;;;;;;;-143.48;100.00;118439.88;5078133;28;20025;-69
2023/03/21 05:38:38;;;;;;;29.38;14.88;;;;;;;-143.48;100.00;118439.88;5077479;28;20100;-69
2023/03/21 05:41:04;;;;;;;30.08;14.13;;;;;;;-143.48;100.00;118439.88;5076766;28;20105;-69
2023/03/21 05:43:29;;;;;;;33.42;14.80;;;;;;;-143.48;100.00;118439.88;5077587;28;20103;-70
2023/03/21 05:45:54;;;;;;;27.48;13.82;;;;;;;-143.48;100.00;118439.88;5076531;28;20043;-69
2023/03/21 05:48:19;;;;;;;29.90;14.27;;;;;;;-143.48;100.00;118439.88;5076537;28;20099;-69
2023/03/21 05:50:45;;;;;;;32.88;14.18;;;;;;;-143.48;100.00;118439.88;5075801;28;20031;-69
2023/03/21 05:53:10;;;;;;;32.00;13.95;;;;;;;-143.48;100.00;118439.88;5074534;28;20086;-70
2023/03/21 05:55:36;;;;;;;33.80;13.25;;;;;;;-143.48;100.00;118439.88;5075849;28;20020;-69
2023/03/21 05:58:02;;;;;;;28.23;13.45;;;;;;;-143.48;100.00;118439.88;5075760;28;20063;-69
2023/03/21 06:00:27;;;;;;;31.27;14.45;;;;;;;-143.48;100.00;118439.88;5075808;28;20109;-69
2023/03/21 06:02:53;;;;;;;30.85;14.48;;;;;;;-143.48;100.00;118439.88;5075510;28;20080;-69
2023/03/21 06:05:19;;;;;;;31.05;13.93;;;;;;;-143.48;100.00;118439.88;5075738;28;20074;-69
2023/03/21 06:07:44;;;;;;;25.75;13.68;;;;;;;-143.48;100.00;118439.88;5075197;28;20028;-69
2023/03/21 06:10:10;;;;;;;35.90;14.60;;;;;;;-143.48;100.00;118439.88;5075836;28;20460;-69
2023/03/21 06:12:36;;;;;;;29.40;13.40;;;;;;;-143.48;100.00;118439.88;5074160;28;20024;-68
2023/03/21 06:15:04;;;;;;;29.17;13.32;;;;;;;-143.48;100.00;118439.88;5075400;28;20024;-68
2023/03/21 06:17:29;;;;;;;30.20;13.70;;;;;;;-143.48;100.00;118439.88;5075255;28;20027;-71
2023/03/21 06:19:55;;;;;;;28.02;13.70;;;;;;;-143.48;100.00;118439.88;5074664;28;20021;-69
2023/03/21 06:22:20;;;;;;;30.65;13.75;;;;;;;-143.48;100.00;118439.88;5075499;28;20063;-68
2023/03/21 06:24:46;;;;;;;27.58;13.95;;;;;;;-143.48;100.00;118439.88;5076353;28;20028;-69
2023/03/21 06:27:11;;;;;;;28.08;13.75;;;;;;;-143.48;100.00;118439.88;5073990;28;20506;-69
2023/03/21 06:29:37;;;;;;;32.13;15.00;;;;;;;-143.48;100.00;118439.88;5075382;28;20031;-69
2023/03/21 06:32:03;;;;;;;30.73;14.63;;;;;;;-143.48;100.00;118439.88;5073721;28;20020;-69
2023/03/21 06:34:28;;;;;;;33.83;13.88;;;;;;;-143.48;100.00;118439.88;5074913;28;20031;-69
2023/03/21 06:36:53;;;;;;;29.77;13.95;;;;;;;-143.48;100.00;118439.88;5075005;28;20024;-69
2023/03/21 06:39:20;;;;;;;31.98;14.10;;;;;;;-143.48;100.00;118439.88;5073631;28;20043;-69
2023/03/21 06:41:45;;;;;;;30.90;13.52;;;;;;;-143.48;100.00;118439.88;5073577;28;20087;-69
2023/03/21 06:44:10;;;;;;;30.50;13.52;;;;;;;-143.48;100.00;118439.88;5074833;28;20035;-69
2023/03/21 06:46:36;;;;;;;25.98;12.93;;;;;;;-143.48;100.00;118439.88;5075252;28;20024;-68
2023/03/21 06:49:02;;;;;;;31.45;13.25;;;;;;;-143.48;100.00;118439.88;5074606;28;20374;-69
2023/03/21 06:51:27;;;;;;;25.48;12.48;;;;;;;-143.48;100.00;118439.88;5074932;28;20506;-68
2023/03/21 06:53:52;;;;;;;26.20;12.32;;;;;;;-143.48;100.00;118439.88;5074611;28;20044;-69
2023/03/21 06:56:18;;;;;;;33.47;13.05;;;;;;;-143.48;100.00;118439.88;5074789;28;20066;-69
2023/03/21 06:58:44;;;;;;;25.45;12.07;;;;;;;-143.48;100.00;118439.88;5084868;28;20012;-69
2023/03/21 07:01:09;;;;;;;27.80;12.73;;;;;;;-143.48;100.00;118439.88;5080366;28;20485;-68
2023/03/21 07:03:36;;;;;;;29.50;12.15;;;;;;;-143.48;100.00;118439.88;5073245;28;20025;-68
2023/03/21 07:06:10;;;;;;;28.33;13.10;;;;;;;-143.48;100.00;118439.88;5072052;28;20368;-69
2023/03/21 07:08:36;;;;;;;21.48;12.10;;;;;;;-143.48;100.00;118439.88;5073023;28;20380;-69
2023/03/21 07:11:01;;;;;;;22.73;10.98;;;;;;;-143.48;100.00;118439.88;5072893;28;20032;-69
2023/03/21 07:13:26;;;;;;;22.90;11.90;;;;;;;-143.48;100.00;118439.88;5072918;28;20055;-69
2023/03/21 07:15:53;;;;;;;24.92;10.45;;;;;;;-143.48;100.00;118439.88;5076713;28;20019;-69
2023/03/21 07:18:18;;;;;;;25.13;11.40;;;;;;;-143.48;100.00;118439.88;5072788;28;20051;-69
2023/03/21 07:20:47;;;;;;;25.77;11.18;;;;;;;-143.48;100.00;118439.88;5072208;28;20070;-69
2023/03/21 07:23:12;;;;;;;22.17;10.52;;;;;;;-143.48;100.00;118439.88;5071349;28;20028;-69
2023/03/21 07:25:38;;;;;;;22.50;10.57;;;;;;;-143.48;100.00;118439.88;5073429;28;20028;-69
2023/03/21 07:28:07;;;;;;;21.95;10.43;;;;;;;-143.48;100.00;118439.88;5073331;28;20503;-68
2023/03/21 07:30:33;;;;;;;21.20;10.23;;;;;;;-143.48;100.00;118439.88;5073567;28;20029;-70
2023/03/21 07:32:58;;;;;;;19.75;9.32;;;;;;;-143.48;100.00;118439.88;5075828;28;20364;-69
2023/03/21 07:35:24;;;;;;;25.00;10.25;;;;;;;-143.48;100.00;118439.88;5073792;28;20073;-69
2023/03/21 07:37:49;;;;;;;21.75;9.43;;;;;;;-143.48;100.00;118439.88;5073543;28;20162;-69
2023/03/21 07:40:15;;;;;;;22.90;9.07;;;;;;;-143.48;100.00;118439.88;5077406;28;20114;-69
2023/03/21 07:42:41;;;;;;;25.25;9.13;;;;;;;-143.48;100.00;118439.88;5085342;28;20138;-70
2023/03/21 07:45:08;;;;;;;20.23;9.43;;;;;;;-143.48;100.00;118439.88;5077282;28;20484;-69
2023/03/21 07:47:33;;;;;;;22.30;9.25;;;;;;;-143.48;100.00;118439.88;5076581;28;20059;-69
2023/03/21 07:49:59;;;;;;;22.63;9.38;;;;;;;-143.48;100.00;118439.88;5075919;28;20024;-67
2023/03/21 07:52:25;;;;;;;22.10;9.02;;;;;;;-143.48;100.00;118439.88;5075025;28;20054;-69
2023/03/21 07:54:50;;;;;;;20.27;9.10;;;;;;;-143.48;100.00;118439.88;5073681;28;20032;-69
2023/03/21 07:57:16;;;;;;;24.73;9.20;;;;;;;-143.48;100.00;118439.88;5075860;28;20050;-69
2023/03/21 07:59:41;;;;;;;25.52;9.35;;;;;;;-143.48;100.00;118439.88;5079567;28;20027;-69
2023/03/21 08:02:12;;;;;;;22.95;9.35;;;;;;;-143.48;100.00;118439.88;5072700;28;20035;-69
2023/03/21 08:04:37;;;;;;;18.77;8.80;;;;;;;-143.48;100.00;118439.88;5073899;28;20031;-68
2023/03/21 08:07:03;;;;;;;17.45;8.55;;;;;;;-143.48;100.00;118439.88;5072426;28;20084;-69
2023/03/21 08:09:28;;;;;;;23.83;8.63;;;;;;;-143.48;100.00;118439.88;5073988;28;20020;-69
2023/03/21 08:11:53;;;;;;;20.92;8.40;;;;;;;-143.48;100.00;118439.88;5073560;28;20460;-69
2023/03/21 08:14:19;;;;;;;21.75;9.30;;;;;;;-143.48;100.00;118439.88;5073342;28;20032;-69
2023/03/21 08:16:44;;;;;;;23.20;8.75;;;;;;;-143.48;100.00;118439.88;5073470;28;20028;-69
2023/03/21 08:19:09;;;;;;;20.00;8.60;;;;;;;-143.48;100.00;118439.88;5073350;28;20027;-68
2023/03/21 08:21:36;;;;;;;18.63;8.48;;;;;;;-143.48;100.00;118439.88;5073268;28;20456;-69
2023/03/21 08:24:02;;;;;;;19.35;8.57;;;;;;;-143.48;100.00;118439.88;5075255;28;20059;-69
2023/03/21 08:26:27;;;;;;;21.92;8.40;;;;;;;-143.48;100.00;118439.88;5077739;28;20445;-70
2023/03/21 08:28:52;;;;;;;21.45;8.85;;;;;;;-143.48;100.00;118439.88;5077306;28;20392;-70
2023/03/21 08:31:20;;;;;;;20.33;8.70;;;;;;;-143.48;100.00;118439.88;5076101;28;20058;-70
2023/03/21 08:33:46;;;;;;;19.30;8.75;;;;;;;-143.48;100.00;118439.88;5076423;28;20027;-70
2023/03/21 08:36:11;;;;;;;21.77;8.27;;;;;;;-143.48;100.00;118439.88;5076038;28;20016;-69
2023/03/21 08:38:37;;;;;;;23.90;9.05;;;;;;;-143.48;100.00;118439.88;5077279;28;20120;-69
2023/03/21 08:41:02;;;;;;;25.90;9.15;;;;;;;-143.48;100.00;118439.88;5076157;28;20025;-70
2023/03/21 08:43:28;;;;;;;20.67;9.48;;;;;;;-143.48;100.00;118439.88;5077260;28;20081;-69
2023/03/21 08:45:54;;;;;;;21.70;8.60;;;;;;;-143.48;100.00;118439.88;5076969;28;20052;-69
2023/03/21 08:48:19;;;;;;;23.42;8.35;;;;;;;-143.48;100.00;118439.88;5077109;28;20082;-70
2023/03/21 08:50:45;;;;;;;19.92;8.40;;;;;;;-143.48;100.00;118439.88;5076954;28;20025;-69
2023/03/21 08:53:10;;;;;;;23.27;9.10;;;;;;;-143.48;100.00;118439.88;5076713;28;20055;-69
2023/03/21 08:55:36;;;;;;;20.45;8.73;;;;;;;-143.48;100.00;118439.88;5076900;28;20111;-69
2023/03/21 08:58:02;;;;;;;19.63;8.48;;;;;;;-143.48;100.00;118439.88;5075514;28;20146;-68
2023/03/21 09:00:28;;;;;;;24.33;8.40;;;;;;;-143.48;100.00;118439.88;5076617;28;20642;-68
2023/03/21 09:02:54;;;;;;;24.52;9.05;;;;;;;-143.48;100.00;118439.88;5076790;28;20111;-69
2023/03/21 09:05:21;;;;;;;23.60;8.02;;;;;;;-143.48;100.00;118439.88;5075091;28;20078;-68
2023/03/21 09:07:48;;;;;;;18.33;8.23;;;;;;;-143.48;100.00;118439.88;5076745;28;20025;-67
2023/03/21 09:10:20;;;;;;;13.90;6.97;;;;;;;-143.48;100.00;118439.88;5076248;28;20531;-68
2023/03/21 09:12:46;;;;;;;12.00;6.88;;;;;;;-143.48;100.00;118439.88;5075174;28;20020;-67
2023/03/21 09:15:11;;;;;;;19.23;7.35;;;;;;;-143.48;100.00;118439.88;5076165;28;20051;-67
2023/03/21 09:17:42;;;;;;;18.90;7.93;;;;;;;-143.48;100.00;118439.88;5075595;28;20017;-68
2023/03/21 09:20:19;;;;;;;18.48;7.25;;;;;;;-143.48;100.00;118439.88;5076216;28;20404;-68
2023/03/21 09:22:51;;;;;;;15.82;7.88;;;;;;;-143.48;99.38;118439.88;5074962;28;20020;-68
2023/03/21 09:25:17;;;;;;;13.82;5.85;;;;;;;-143.48;98.38;118439.88;5075242;28;20035;-68
2023/03/21 09:27:46;;;;;;;16.15;6.25;;;;;;;-143.48;99.20;118439.88;5076323;28;20024;-68
2023/03/21 09:30:14;;;;;;;14.02;6.60;;;;;;;-143.48;99.05;118439.88;5076301;28;20102;-67
2023/03/21 09:32:40;;;;;;;19.17;7.20;;;;;;;-143.48;98.33;118439.88;5077782;28;20080;-67
2023/03/21 09:35:07;;;;;;;15.15;6.68;;;;;;;-143.48;97.93;118439.88;5076088;28;20032;-68
2023/03/21 09:37:32;;;;;;;16.20;6.63;;;;;;;-143.48;97.70;118439.88;5078449;28;20107;-69
2023/03/21 09:39:58;;;;;;;15.25;5.90;;;;;;;-143.48;98.39;118439.88;5077202;28;20032;-67
2023/03/21 09:42:32;;;;;;;15.65;6.28;;;;;;;-143.48;96.60;118439.88;5075340;28;20024;-68
2023/03/21 09:45:07;;;;;;;15.15;6.40;;;;;;;-143.48;96.39;118439.88;5076270;28;20079;-68
2023/03/21 09:47:48;;;;;;;16.92;6.15;;;;;;;-143.48;96.10;118439.88;5076228;28;20024;-69
2023/03/21 09:50:19;;;;;;;14.57;6.38;;;;;;;-143.48;96.32;118439.88;5077335;28;20056;-68
2023/03/21 09:52:57;;;;;;;13.00;6.20;;;;;;;-143.48;95.85;118439.88;5077704;28;20083;-68
2023/03/21 09:55:29;;;;;;;14.80;6.25;;;;;;;-143.48;94.95;118439.88;5075592;28;20037;-69
2023/03/21 09:58:13;;;;;;;15.18;6.13;;;;;;;-143.48;94.89;118439.88;5076827;28;20111;-68
2023/03/21 10:00:44;;;;;;;16.50;6.38;;;;;;;-143.48;95.26;118439.88;5080168;28;20028;-67
2023/03/21 10:03:23;;;;;;;16.92;6.55;;;;;;;-143.48;95.57;118439.88;5076808;28;20025;-67
2023/03/21 10:05:51;;;;;;;16.25;6.80;;;;;;;-143.48;95.80;118439.88;5075843;28;20069;-67
2023/03/21 10:08:35;;;;;;;16.25;6.35;;;;;;;-143.48;94.72;118439.88;5073909;28;20538;-67
2023/03/21 10:11:09;;;;;;;16.13;6.35;;;;;;;-143.48;94.40;118439.88;5075395;28;20104;-68
2023/03/21 10:13:40;;;;;;;16.52;6.57;;;;;;;-143.48;92.84;118439.88;5075095;28;20063;-67
2023/03/21 10:16:15;;;;;;;14.23;6.25;;;;;;;-143.48;92.07;118439.88;5073900;28;20056;-68
2023/03/21 10:18:42;;;;;;;16.83;6.60;;;;;;;-143.48;92.24;118439.88;5075485;28;20078;-67
2023/03/21 10:21:15;;;;;;;15.57;6.45;;;;;;;-143.48;92.26;118439.88;5075269;28;20024;-67
2023/03/21 10:23:40;;;;;;;;;;;;;;;-143.48;91.94;118439.88;5073995;28;20047;-67
2023/03/21 10:26:06;;;;;;;17.33;6.72;;;;;;;-143.48;91.85;118439.88;5074487;28;19955;-67
2023/03/21 10:28:36;;;;;;;18.77;6.97;;;;;;;-143.48;91.29;118439.88;5073759;28;20051;-67
2023/03/21 10:31:06;;;;;;;14.32;6.53;;;;;;;-143.48;91.40;118439.88;5074836;28;20024;-68
2023/03/21 10:33:35;;;;;;;19.05;6.53;;;;;;;-143.48;90.88;118439.88;5075049;28;20036;-68
2023/03/21 10:36:06;;;;;;;15.88;6.82;;;;;;;-143.48;90.37;118439.88;5073302;28;20024;-69
2023/03/21 10:38:31;;;;;;;16.90;6.95;;;;;;;-143.48;90.29;118439.88;5074916;28;20544;-67
2023/03/21 10:40:57;;;;;;;21.10;7.45;;;;;;;-143.48;89.75;118439.88;5073274;28;20024;-68
2023/03/21 10:43:25;;;;;;;14.70;6.75;;;;;;;-143.48;89.44;118439.88;5075269;28;20107;-68
2023/03/21 10:45:52;;;;;;;17.23;6.80;;;;;;;-143.48;89.09;118439.88;5074523;28;20077;-67
2023/03/21 10:48:19;;;;;;;14.65;6.65;;;;;;;-143.48;88.64;118439.88;5073862;28;20499;-67
2023/03/21 10:50:48;;;;;;;15.68;6.82;;;;;;;-143.48;87.22;118439.88;5072925;28;20396;-67
2023/03/21 10:53:30;;;;;;;16.08;6.97;;;;;;;-143.48;86.60;118439.88;5072622;28;20040;-67
2023/03/21 10:55:59;;;;;;;14.20;6.60;;;;;;;-143.48;87.08;118439.88;5074539;28;20029;-67
2023/03/21 10:58:32;;;;;;;16.65;6.82;;;;;;;-143.48;87.07;118439.88;5075742;28;20032;-68
2023/03/21 11:01:05;;;;;;;13.85;5.93;;;;;;;-143.48;86.53;118439.88;5080034;28;20028;-68